createdAt,value
2022-11-18T00:00:49.509Z,5.79
2022-11-18T00:03:19.369Z,5.76
2022-11-18T00:05:55.483Z,5.76
2022-11-18T00:08:25.916Z,5.72
2022-11-18T00:10:54.653Z,5.74
2022-11-18T00:13:42.183Z,5.73
2022-11-18T00:16:14.072Z,5.75
2022-11-18T00:18:42.715Z,5.72
2022-11-18T00:21:13.665Z,5.72
2022-11-18T00:23:42.488Z,5.73
2022-11-18T00:26:14.584Z,5.75
2022-11-18T00:28:44.167Z,5.76
2022-11-18T00:31:15.600Z,5.80
2022-11-18T00:33:44.269Z,5.82
2022-11-18T00:36:14.533Z,5.83
2022-11-18T00:38:44.324Z,5.84
2022-11-18T00:41:16.384Z,5.86
2022-11-18T00:43:43.837Z,5.89
2022-11-18T00:46:15.580Z,5.90
2022-11-18T00:48:45.117Z,5.90
2022-11-18T00:51:16.927Z,5.90
2022-11-18T00:53:47.794Z,5.90
2022-11-18T00:56:16.175Z,5.93
2022-11-18T00:58:45.595Z,5.93
2022-11-18T01:01:15.969Z,5.92
2022-11-18T01:03:46.794Z,5.92
2022-11-18T01:06:15.653Z,5.91
2022-11-18T01:08:45.405Z,5.89
2022-11-18T01:11:30.515Z,5.87
2022-11-18T01:13:59.345Z,5.90
2022-11-18T01:16:29.844Z,5.88
2022-11-18T01:18:59.348Z,5.84
2022-11-18T01:21:27.853Z,5.84
2022-11-18T01:23:56.317Z,5.82
2022-11-18T01:26:24.705Z,5.80
2022-11-18T01:28:56.810Z,5.80
2022-11-18T01:31:25.977Z,5.81
2022-11-18T01:33:55.850Z,5.82
2022-11-18T01:36:28.392Z,5.84
2022-11-18T01:38:57.935Z,5.84
2022-11-18T01:41:28.425Z,5.85
2022-11-18T01:43:59.714Z,5.88
2022-11-18T01:46:30.299Z,5.87
2022-11-18T01:49:07.247Z,5.89
2022-11-18T01:51:39.272Z,5.92
2022-11-18T01:54:13.361Z,5.94
2022-11-18T01:56:47.621Z,5.96
2022-11-18T01:59:20.924Z,6.01
2022-11-18T02:01:50.787Z,6.00
2022-11-18T02:04:23.210Z,6.02
2022-11-18T02:06:53.059Z,6.04
2022-11-18T02:09:23.414Z,6.06
2022-11-18T02:11:54.232Z,6.07
2022-11-18T02:14:28.003Z,6.09
2022-11-18T02:17:06.045Z,6.10
2022-11-18T02:20:06.787Z,6.13
2022-11-18T02:22:57.681Z,6.14
2022-11-18T02:25:41.373Z,6.18
2022-11-18T02:28:43.967Z,6.20
2022-11-18T02:31:19.614Z,6.22
2022-11-18T02:33:56.013Z,6.24
2022-11-18T02:36:29.884Z,6.26
2022-11-18T02:39:04.828Z,6.27
2022-11-18T02:41:36.967Z,6.30
2022-11-18T02:44:09.856Z,6.32
2022-11-18T02:46:44.731Z,6.35
2022-11-18T02:49:21.730Z,6.36
2022-11-18T02:51:51.814Z,6.37
2022-11-18T02:54:24.928Z,6.39
2022-11-18T02:56:55.830Z,6.41
2022-11-18T02:59:24.950Z,6.41
2022-11-18T03:01:55.071Z,6.43
2022-11-18T03:04:27.765Z,6.44
2022-11-18T03:07:06.107Z,6.47
2022-11-18T03:09:39.441Z,6.54
2022-11-18T03:12:15.911Z,6.56
2022-11-18T03:14:52.010Z,6.55
2022-11-18T03:17:34.719Z,6.56
2022-11-18T03:20:14.070Z,6.52
2022-11-18T03:22:50.060Z,6.50
2022-11-18T03:25:23.588Z,6.51
2022-11-18T03:28:00.063Z,6.52
2022-11-18T03:30:31.508Z,6.55
2022-11-18T03:33:06.484Z,6.65
2022-11-18T03:35:38.537Z,6.65
2022-11-18T03:38:13.052Z,6.69
2022-11-18T03:40:46.626Z,6.67
2022-11-18T03:43:21.439Z,6.67
2022-11-18T03:45:56.433Z,6.70
2022-11-18T03:48:31.443Z,6.71
2022-11-18T03:51:04.354Z,6.72
2022-11-18T03:53:38.454Z,6.67
2022-11-18T03:56:17.180Z,6.60
2022-11-18T03:58:54.561Z,6.57
2022-11-18T04:01:31.072Z,6.53
2022-11-18T04:04:01.458Z,6.48
2022-11-18T04:06:39.529Z,6.52
2022-11-18T04:09:14.086Z,6.55
2022-11-18T04:12:05.391Z,6.56
2022-11-18T04:14:35.744Z,6.62
2022-11-18T04:17:11.344Z,6.64
2022-11-18T04:19:41.871Z,6.59
2022-11-18T04:22:11.610Z,6.56
2022-11-18T04:24:40.921Z,6.53
2022-11-18T04:27:09.974Z,6.54
2022-11-18T04:29:39.113Z,6.54
2022-11-18T04:32:09.134Z,6.53
2022-11-18T04:34:38.630Z,6.55
2022-11-18T04:37:14.879Z,6.53
2022-11-18T04:39:43.612Z,6.50
2022-11-18T04:42:11.984Z,6.49
2022-11-18T04:44:46.730Z,6.48
2022-11-18T04:47:15.230Z,6.48
2022-11-18T04:49:44.175Z,6.48
2022-11-18T04:52:13.107Z,6.47
2022-11-18T04:54:43.100Z,6.50
2022-11-18T04:57:11.826Z,6.49
2022-11-18T04:59:40.644Z,6.50
2022-11-18T05:02:09.239Z,6.48
2022-11-18T05:04:37.852Z,6.54
2022-11-18T05:07:08.035Z,6.57
2022-11-18T05:09:37.787Z,6.59
2022-11-18T05:12:29.389Z,6.58
2022-11-18T05:14:58.074Z,6.60
2022-11-18T05:17:26.649Z,6.65
2022-11-18T05:19:55.232Z,6.59
2022-11-18T05:22:23.872Z,6.60
2022-11-18T05:24:53.584Z,6.58
2022-11-18T05:27:23.967Z,6.57
2022-11-18T05:29:53.150Z,6.57
2022-11-18T05:32:21.938Z,6.55
2022-11-18T05:34:50.584Z,6.49
2022-11-18T05:37:19.234Z,6.43
2022-11-18T05:39:47.792Z,6.34
2022-11-18T05:42:33.812Z,6.27
2022-11-18T05:45:03.704Z,6.23
2022-11-18T05:47:53.679Z,6.18
2022-11-18T05:50:22.529Z,6.13
2022-11-18T05:52:51.329Z,6.09
2022-11-18T05:55:22.389Z,6.04
2022-11-18T05:57:55.766Z,5.99
2022-11-18T06:00:25.746Z,5.95
2022-11-18T06:02:57.236Z,5.90
2022-11-18T06:05:27.643Z,5.85
2022-11-18T06:07:59.569Z,5.82
2022-11-18T06:10:33.680Z,5.79
2022-11-18T06:13:08.354Z,5.76
2022-11-18T06:15:42.192Z,5.73
2022-11-18T06:18:14.619Z,5.64
2022-11-18T06:20:43.934Z,5.65
2022-11-18T06:23:13.870Z,5.60
2022-11-18T06:25:43.167Z,5.58
2022-11-18T06:28:15.623Z,5.56
2022-11-18T06:30:45.774Z,5.51
2022-11-18T06:33:14.253Z,5.50
2022-11-18T06:35:43.801Z,5.48
2022-11-18T06:38:13.750Z,5.46
2022-11-18T06:40:45.148Z,5.41
2022-11-18T06:43:37.857Z,5.38
2022-11-18T06:46:27.673Z,5.28
2022-11-18T06:48:58.066Z,5.29
2022-11-18T06:51:27.598Z,5.24
2022-11-18T06:53:56.393Z,5.19
2022-11-18T06:56:25.411Z,5.17
2022-11-18T06:59:00.919Z,5.14
2022-11-18T07:01:32.672Z,5.12
2022-11-18T07:04:02.574Z,5.16
2022-11-18T07:06:33.685Z,5.09
2022-11-18T07:09:05.803Z,5.09
2022-11-18T07:11:35.334Z,5.09
2022-11-18T07:14:05.193Z,5.04
2022-11-18T07:16:38.621Z,5.03
2022-11-18T07:19:12.083Z,4.97
2022-11-18T07:21:41.477Z,4.94
2022-11-18T07:24:11.025Z,4.89
2022-11-18T07:26:39.885Z,4.83
2022-11-18T07:29:10.413Z,4.81
2022-11-18T07:31:41.322Z,4.76
2022-11-18T07:34:12.009Z,4.74
2022-11-18T07:36:40.767Z,4.76
2022-11-18T07:39:09.648Z,4.71
2022-11-18T07:41:41.016Z,4.69
2022-11-18T07:44:12.943Z,4.68
2022-11-18T07:46:43.085Z,4.64
2022-11-18T07:49:13.570Z,4.62
2022-11-18T07:51:42.421Z,4.60
2022-11-18T07:54:12.626Z,4.57
2022-11-18T07:56:41.723Z,4.54
2022-11-18T07:59:10.745Z,4.55
2022-11-18T08:01:39.872Z,4.59
2022-11-18T08:04:12.548Z,4.53
2022-11-18T08:06:42.026Z,4.48
2022-11-18T08:09:11.375Z,4.45
2022-11-18T08:11:41.190Z,4.40
2022-11-18T08:14:09.656Z,4.41
2022-11-18T08:16:38.625Z,4.37
2022-11-18T08:19:07.110Z,4.37
2022-11-18T08:21:37.228Z,4.36
2022-11-18T08:24:06.440Z,4.37
2022-11-18T08:26:35.507Z,4.36
2022-11-18T08:29:04.512Z,4.35
2022-11-18T08:31:33.062Z,4.36
2022-11-18T08:34:04.433Z,4.40
2022-11-18T08:36:34.474Z,4.39
2022-11-18T08:39:08.088Z,4.44
2022-11-18T08:41:39.051Z,4.54
2022-11-18T08:44:11.783Z,4.65
2022-11-18T08:46:40.412Z,4.72
2022-11-18T08:49:09.567Z,4.59
2022-11-18T08:51:38.194Z,4.60
2022-11-18T08:54:08.606Z,4.56
2022-11-18T08:56:37.149Z,4.66
2022-11-18T08:59:05.867Z,4.76
2022-11-18T09:01:34.427Z,4.76
2022-11-18T09:04:02.999Z,4.74
2022-11-18T09:06:31.696Z,4.81
2022-11-18T09:09:06.002Z,4.87
2022-11-18T09:11:37.075Z,4.94
2022-11-18T09:15:11.808Z,4.99
2022-11-18T09:16:54.431Z,5.05
2022-11-18T09:22:12.031Z,5.24
2022-11-18T09:24:41.205Z,5.41
2022-11-18T09:27:16.681Z,5.60
2022-11-18T09:29:46.162Z,5.82
2022-11-18T09:32:14.934Z,6.02
2022-11-18T09:34:44.823Z,6.16
2022-11-18T09:37:13.242Z,6.21
2022-11-18T09:43:32.420Z,5.81
2022-11-18T09:46:06.769Z,5.69
2022-11-18T09:48:56.828Z,5.75
2022-11-18T09:51:33.320Z,5.73
2022-11-18T09:54:05.010Z,5.75
2022-11-18T09:56:35.605Z,5.79
2022-11-18T09:59:11.109Z,5.92
2022-11-18T10:01:42.980Z,5.93
2022-11-18T10:04:17.924Z,5.94
2022-11-18T10:06:52.030Z,6.06
2022-11-18T10:09:38.247Z,6.16
2022-11-18T10:12:21.956Z,6.23
2022-11-18T10:15:20.026Z,6.29
2022-11-18T10:21:23.359Z,6.41
2022-11-18T10:24:02.792Z,6.48
2022-11-18T10:26:38.629Z,6.60
2022-11-18T10:29:10.443Z,6.69
2022-11-18T10:32:05.641Z,6.72
2022-11-18T10:34:55.086Z,6.79
2022-11-18T10:37:45.790Z,6.92
2022-11-18T10:40:27.542Z,6.99
2022-11-18T10:42:56.944Z,7.02
2022-11-18T10:45:35.113Z,7.12
2022-11-18T10:56:07.764Z,7.41
2022-11-18T11:56:52.670Z,9.11
2022-11-18T11:59:39.365Z,9.13
2022-11-18T12:02:48.599Z,9.22
2022-11-18T12:05:34.564Z,9.31
2022-11-18T12:08:50.660Z,9.35
2022-11-18T12:11:38.841Z,9.30
2022-11-18T12:18:10.815Z,9.38
2022-11-18T12:24:32.353Z,9.70
2022-11-18T12:27:08.727Z,9.55
2022-11-18T12:29:44.239Z,9.52
2022-11-18T12:32:35.424Z,9.43
2022-11-18T12:35:43.626Z,9.53
2022-11-18T12:38:57.645Z,9.56
2022-11-18T12:42:20.246Z,9.58
2022-11-18T12:45:40.428Z,9.41
2022-11-18T12:51:49.442Z,9.58
2022-11-18T12:54:36.493Z,9.58
2022-11-18T12:57:23.381Z,9.63
2022-11-18T13:00:52.882Z,9.72
2022-11-18T13:03:31.099Z,9.64
2022-11-18T13:06:10.258Z,9.72
2022-11-18T13:08:43.782Z,9.77
2022-11-18T13:11:46.252Z,9.81
2022-11-18T13:14:35.837Z,9.84
2022-11-18T13:17:45.036Z,9.83
2022-11-18T13:20:22.798Z,9.77
2022-11-18T13:23:10.205Z,9.82
2022-11-18T13:26:05.704Z,9.85
2022-11-18T13:29:09.594Z,9.77
2022-11-18T13:32:14.869Z,9.82
2022-11-18T13:34:53.615Z,9.82
2022-11-18T13:37:52.778Z,9.89
2022-11-18T13:41:04.749Z,9.85
2022-11-18T13:43:44.084Z,9.96
2022-11-18T13:46:45.634Z,9.88
2022-11-18T13:49:25.891Z,9.85
2022-11-18T13:51:55.750Z,9.82
2022-11-18T13:54:31.713Z,9.84
2022-11-18T13:57:51.344Z,9.75
2022-11-18T14:00:55.684Z,9.72
2022-11-18T14:03:29.322Z,9.71
2022-11-18T14:06:00.945Z,9.84
2022-11-18T14:08:33.365Z,9.81
2022-11-18T14:11:40.119Z,9.97
2022-11-18T14:14:34.788Z,9.96
2022-11-18T14:17:22.146Z,10.07
2022-11-18T14:19:59.745Z,10.22
2022-11-18T14:22:32.618Z,10.42
2022-11-18T14:25:19.961Z,10.72
2022-11-18T14:27:52.399Z,11.13
2022-11-18T14:30:58.313Z,11.68
2022-11-18T14:34:05.535Z,11.58
2022-11-18T14:36:41.241Z,11.64
2022-11-18T14:39:28.117Z,11.89
2022-11-18T14:42:26.162Z,12.13
2022-11-18T14:44:55.153Z,12.06
2022-11-18T14:47:30.606Z,11.97
2022-11-18T14:50:02.919Z,11.65
2022-11-18T14:52:42.436Z,11.90
2022-11-18T14:55:13.396Z,11.89
2022-11-18T14:57:48.474Z,12.05
2022-11-18T15:00:20.429Z,11.35
2022-11-18T15:02:50.271Z,10.46
2022-11-18T15:05:18.912Z,9.79
2022-11-18T15:07:47.662Z,9.38
2022-11-18T15:10:24.331Z,9.18
2022-11-18T15:13:00.707Z,9.05
2022-11-18T15:15:34.665Z,8.94
2022-11-18T15:18:05.757Z,8.86
2022-11-18T15:20:44.568Z,8.80
2022-11-18T15:23:33.385Z,8.72
2022-11-18T15:26:20.224Z,8.64
2022-11-18T15:28:57.033Z,8.61
2022-11-18T15:31:29.350Z,8.61
2022-11-18T15:34:14.599Z,8.53
2022-11-18T15:36:45.130Z,8.49
2022-11-18T15:43:02.950Z,8.40
2022-11-18T15:45:39.707Z,8.34
2022-11-18T15:48:08.623Z,8.29
2022-11-18T15:50:54.316Z,8.26
2022-11-18T15:53:23.208Z,8.26
2022-11-18T15:56:11.744Z,8.18
2022-11-18T15:58:56.802Z,8.15
2022-11-18T16:01:29.481Z,8.12
2022-11-18T16:04:01.455Z,8.12
2022-11-18T16:06:29.821Z,8.14
2022-11-18T16:09:00.170Z,8.16
2022-11-18T16:11:47.406Z,8.17
2022-11-18T16:14:19.310Z,8.22
2022-11-18T16:16:50.483Z,8.19
2022-11-18T16:19:21.050Z,8.20
2022-11-18T16:21:51.669Z,8.12
2022-11-18T16:24:22.612Z,8.02
2022-11-18T16:26:51.964Z,7.86
2022-11-18T16:29:23.229Z,7.74
2022-11-18T16:31:54.975Z,7.66
2022-11-18T16:34:24.877Z,7.58
2022-11-18T16:36:55.787Z,7.54
2022-11-18T16:39:26.404Z,7.49
2022-11-18T16:42:00.746Z,7.48
2022-11-18T16:44:37.535Z,7.49
2022-11-18T16:47:14.305Z,7.51
2022-11-18T16:49:44.776Z,7.49
2022-11-18T16:52:13.359Z,7.46
2022-11-18T16:54:45.751Z,7.42
2022-11-18T16:57:15.576Z,7.42
2022-11-18T16:59:46.104Z,7.33
2022-11-18T17:02:15.868Z,7.29
2022-11-18T17:04:45.654Z,7.25
2022-11-18T17:07:14.252Z,7.22
2022-11-18T17:09:42.633Z,7.22
2022-11-18T17:12:11.962Z,7.12
2022-11-18T17:14:40.647Z,7.08
2022-11-18T17:17:10.698Z,7.02
2022-11-18T17:19:39.186Z,6.93
2022-11-18T17:22:07.973Z,6.86
2022-11-18T17:24:36.847Z,6.82
2022-11-18T17:27:05.547Z,6.76
2022-11-18T17:29:35.036Z,6.72
2022-11-18T17:32:03.538Z,6.67
2022-11-18T17:34:34.173Z,6.62
2022-11-18T17:37:06.710Z,6.58
2022-11-18T17:39:36.086Z,6.55
2022-11-18T17:42:18.205Z,6.54
2022-11-18T17:44:47.865Z,6.48
2022-11-18T17:47:16.684Z,6.44
2022-11-18T17:49:46.674Z,6.43
2022-11-18T17:52:16.563Z,6.40
2022-11-18T17:54:45.091Z,6.39
2022-11-18T17:57:13.559Z,6.32
2022-11-18T17:59:42.146Z,6.31
2022-11-18T18:02:13.656Z,6.28
2022-11-18T18:04:42.688Z,6.26
2022-11-18T18:07:12.766Z,6.27
2022-11-18T18:09:41.517Z,6.22
2022-11-18T18:12:23.866Z,6.19
2022-11-18T18:14:52.923Z,6.17
2022-11-18T18:17:22.911Z,6.13
2022-11-18T18:19:52.333Z,6.08
2022-11-18T18:22:23.128Z,6.04
2022-11-18T18:24:52.764Z,6.04
2022-11-18T18:27:21.837Z,5.99
2022-11-18T18:29:50.193Z,5.95
2022-11-18T18:32:18.497Z,5.94
2022-11-18T18:34:48.119Z,5.88
2022-11-18T18:37:16.927Z,5.89
2022-11-18T18:39:48.099Z,5.81
2022-11-18T18:42:16.684Z,5.81
2022-11-18T18:45:03.102Z,5.77
2022-11-18T18:47:31.872Z,5.73
2022-11-18T18:50:00.418Z,5.70
2022-11-18T18:52:28.998Z,5.69
2022-11-18T18:55:00.298Z,5.70
2022-11-18T18:57:30.721Z,5.68
2022-11-18T18:59:59.383Z,5.59
2022-11-18T19:02:28.077Z,5.56
2022-11-18T19:04:56.621Z,5.56
2022-11-18T19:07:27.985Z,5.58
2022-11-18T19:09:56.934Z,5.51
2022-11-18T19:12:52.002Z,5.53
2022-11-18T19:15:23.405Z,5.49
2022-11-18T19:17:52.659Z,5.45
2022-11-18T19:20:37.004Z,5.41
2022-11-18T19:23:10.329Z,5.36
2022-11-18T19:25:39.480Z,5.30
2022-11-18T19:28:11.872Z,5.26
2022-11-18T19:30:40.486Z,5.21
2022-11-18T19:33:09.354Z,5.19
2022-11-18T19:35:38.697Z,5.15
2022-11-18T19:38:07.259Z,5.16
2022-11-18T19:40:36.346Z,5.12
2022-11-18T19:43:05.028Z,5.09
2022-11-18T19:45:36.181Z,5.07
2022-11-18T19:48:04.763Z,5.04
2022-11-18T19:50:33.397Z,5.00
2022-11-18T19:53:22.172Z,5.00
2022-11-18T19:55:55.958Z,4.98
2022-11-18T19:58:25.260Z,4.94
2022-11-18T20:00:55.396Z,4.91
2022-11-18T20:03:23.845Z,4.89
2022-11-18T20:05:55.651Z,4.86
2022-11-18T20:08:25.658Z,4.82
2022-11-18T20:10:54.533Z,4.82
2022-11-18T20:13:23.431Z,4.79
2022-11-18T20:15:53.456Z,4.77
2022-11-18T20:18:25.685Z,4.73
2022-11-18T20:20:55.428Z,4.69
2022-11-18T20:23:25.631Z,4.65
2022-11-18T20:25:54.712Z,4.63
2022-11-18T20:28:23.195Z,4.61
2022-11-18T20:30:56.391Z,4.60
2022-11-18T20:33:28.110Z,4.60
2022-11-18T20:36:02.879Z,4.59
2022-11-18T20:38:32.819Z,4.58
2022-11-18T20:41:03.898Z,4.55
2022-11-18T20:43:35.427Z,4.53
2022-11-18T20:46:14.597Z,4.51
2022-11-18T20:48:49.506Z,4.48
2022-11-18T20:51:23.967Z,4.46
2022-11-18T20:53:54.113Z,4.44
2022-11-18T20:56:26.167Z,4.42
2022-11-18T20:58:55.398Z,4.41
2022-11-18T21:01:26.247Z,4.32
2022-11-18T21:03:59.332Z,4.32
2022-11-18T21:06:30.361Z,4.30
2022-11-18T21:09:01.388Z,4.26
2022-11-18T21:11:32.460Z,4.24
2022-11-18T21:14:24.324Z,4.20
2022-11-18T21:16:55.629Z,4.18
2022-11-18T21:19:28.195Z,4.15
2022-11-18T21:21:56.903Z,4.15
2022-11-18T21:24:29.219Z,4.15
2022-11-18T21:26:59.014Z,4.11
2022-11-18T21:29:29.524Z,4.06
2022-11-18T21:31:58.210Z,4.05
2022-11-18T21:34:28.538Z,4.04
2022-11-18T21:36:57.212Z,4.00
2022-11-18T21:39:26.131Z,3.99
2022-11-18T21:41:57.138Z,3.98
2022-11-18T21:44:28.737Z,3.96
2022-11-18T21:46:57.908Z,3.93
2022-11-18T21:49:28.767Z,3.88
2022-11-18T21:51:57.302Z,3.90
2022-11-18T21:54:25.857Z,3.90
2022-11-18T21:56:54.825Z,3.87
2022-11-18T21:59:24.357Z,3.87
2022-11-18T22:01:53.330Z,3.82
2022-11-18T22:04:38.749Z,3.81
2022-11-18T22:07:08.622Z,3.77
2022-11-18T22:09:37.281Z,3.76
2022-11-18T22:12:08.296Z,3.75
2022-11-18T22:14:37.326Z,3.75
2022-11-18T22:17:06.857Z,3.73
2022-11-18T22:19:35.662Z,3.73
2022-11-18T22:22:05.339Z,3.73
2022-11-18T22:24:35.622Z,3.71
2022-11-18T22:27:09.915Z,3.70
2022-11-18T22:29:40.052Z,3.68
2022-11-18T22:32:08.477Z,3.67
2022-11-18T22:34:37.477Z,3.63
2022-11-18T22:37:05.908Z,3.65
2022-11-18T22:39:35.999Z,3.63
2022-11-18T22:42:22.069Z,3.61
2022-11-18T22:44:51.086Z,3.65
2022-11-18T22:47:19.593Z,3.68
2022-11-18T22:49:52.093Z,3.67
2022-11-18T22:52:22.067Z,3.64
2022-11-18T22:54:52.100Z,3.60
2022-11-18T22:57:20.734Z,3.56
2022-11-18T22:59:49.085Z,3.52
2022-11-18T23:02:17.585Z,3.51
2022-11-18T23:04:46.052Z,3.46
2022-11-18T23:07:14.720Z,3.45
2022-11-18T23:09:44.206Z,3.41
2022-11-18T23:12:31.739Z,3.41
2022-11-18T23:15:00.326Z,3.36
2022-11-18T23:17:28.591Z,3.35
2022-11-18T23:19:57.161Z,3.36
2022-11-18T23:22:25.819Z,3.30
2022-11-18T23:24:54.589Z,3.28
2022-11-18T23:27:24.970Z,3.28
2022-11-18T23:29:53.668Z,3.26
2022-11-18T23:32:22.376Z,3.23
2022-11-18T23:34:50.832Z,3.23
2022-11-18T23:37:19.581Z,3.21
2022-11-18T23:39:47.899Z,3.22
2022-11-18T23:42:16.292Z,3.21
2022-11-18T23:44:46.616Z,3.18
2022-11-18T23:47:15.236Z,3.16
2022-11-18T23:49:43.692Z,3.13
2022-11-18T23:52:12.890Z,3.15
2022-11-18T23:54:41.493Z,3.14
2022-11-18T23:57:09.878Z,3.14
2022-11-18T23:59:38.161Z,3.12
